Time;durP1;ratioP1;P1;durP2;ratioP2;P2;SDS_P1;SDS_P2;PMS_P1;PMS_P2;Temp;Humidity;BMP_temperature;BMP_pressure;BME280_temperature;BME280_humidity;BME280_pressure;Samples;Min_cycle;Max_cycle;Signal;HPM_P1;HPM_P2
2022/03/09 00:02:16;;;;;;;11.25;6.90;;;;;;;;;;5043422;28;20115;-88
2022/03/09 00:04:42;;;;;;;13.30;6.97;;;;;;;;;;5029243;28;20021;-87
2022/03/09 00:07:07;;;;;;;13.45;6.88;;;;;;;;;;5043374;28;20552;-89
2022/03/09 00:09:32;;;;;;;11.85;7.20;;;;;;;;;;5044605;28;20028;-91
2022/03/09 00:11:58;;;;;;;13.50;7.03;;;;;;;;;;5025578;28;20029;-83
2022/03/09 00:14:23;;;;;;;15.55;7.35;;;;;;;;;;5044540;28;20157;-84
2022/03/09 00:16:48;;;;;;;12.60;7.13;;;;;;;;;;5025601;28;20032;-84
2022/03/09 00:19:14;;;;;;;13.25;7.40;;;;;;;;;;5026056;28;20021;-84
2022/03/09 00:21:39;;;;;;;12.88;7.10;;;;;;;;;;5022543;28;20353;-87
2022/03/09 00:24:05;;;;;;;11.00;6.65;;;;;;;;;;5027384;28;20021;-87
2022/03/09 00:26:30;;;;;;;12.35;6.80;;;;;;;;;;5046361;28;20021;-88
2022/03/09 00:28:56;;;;;;;11.15;6.80;;;;;;;;;;5042626;28;20083;-84
2022/03/09 00:31:21;;;;;;;11.10;6.68;;;;;;;;;;5026736;28;20512;-84
2022/03/09 00:33:47;;;;;;;11.13;6.30;;;;;;;;;;5042845;28;20029;-84
2022/03/09 00:36:12;;;;;;;11.07;6.78;;;;;;;;;;5024235;28;20037;-90
2022/03/09 00:38:37;;;;;;;12.93;6.80;;;;;;;;;;5033264;28;20021;-86
2022/03/09 00:41:03;;;;;;;10.27;6.93;;;;;;;;;;5030845;28;20025;-84
2022/03/09 00:43:28;;;;;;;10.73;6.70;;;;;;;;;;5029299;28;20025;-83
2022/03/09 00:45:54;;;;;;;9.73;6.15;;;;;;;;;;5027644;28;20120;-84
2022/03/09 00:48:20;;;;;;;11.80;7.18;;;;;;;;;;5048224;28;20049;-88
2022/03/09 00:50:45;;;;;;;10.23;6.07;;;;;;;;;;5036172;28;20578;-88
2022/03/09 00:53:11;;;;;;;12.35;6.35;;;;;;;;;;5042484;28;20025;-91
2022/03/09 00:55:36;;;;;;;10.05;6.15;;;;;;;;;;5030989;28;20196;-88
2022/03/09 00:58:02;;;;;;;10.27;6.15;;;;;;;;;;5029849;28;20202;-84
2022/03/09 01:00:27;;;;;;;11.13;6.60;;;;;;;;;;5029311;28;20025;-92
2022/03/09 01:02:52;;;;;;;11.05;6.07;;;;;;;;;;5042903;28;20020;-91
2022/03/09 01:05:18;;;;;;;10.70;6.90;;;;;;;;;;5031878;28;20031;-90
2022/03/09 01:07:43;;;;;;;10.25;5.80;;;;;;;;;;5043273;28;20040;-87
2022/03/09 01:10:09;;;;;;;10.90;6.47;;;;;;;;;;5029754;28;20483;-84
2022/03/09 01:12:35;;;;;;;10.57;6.32;;;;;;;;;;5048514;28;20028;-87
2022/03/09 01:15:01;;;;;;;9.32;5.72;;;;;;;;;;5028672;28;20146;-84
2022/03/09 01:17:26;;;;;;;12.80;6.47;;;;;;;;;;5032406;28;20031;-90
2022/03/09 01:19:52;;;;;;;12.27;7.15;;;;;;;;;;5026186;28;20021;-88
2022/03/09 01:22:18;;;;;;;11.43;6.93;;;;;;;;;;5029597;28;20056;-90
2022/03/09 01:24:43;;;;;;;11.50;6.53;;;;;;;;;;5023261;28;20049;-88
2022/03/09 01:27:08;;;;;;;10.48;6.20;;;;;;;;;;5027775;28;20025;-91
2022/03/09 01:29:34;;;;;;;11.45;6.47;;;;;;;;;;5026172;28;20048;-84
2022/03/09 01:32:00;;;;;;;15.30;6.90;;;;;;;;;;5048006;28;20017;-88
2022/03/09 01:34:25;;;;;;;15.63;6.75;;;;;;;;;;5032831;28;20025;-84
2022/03/09 01:36:51;;;;;;;13.18;6.75;;;;;;;;;;5030303;28;20032;-90
2022/03/09 01:39:16;;;;;;;13.98;7.07;;;;;;;;;;5043664;28;20029;-84
2022/03/09 01:41:41;;;;;;;14.02;6.82;;;;;;;;;;5045549;28;20033;-84
2022/03/09 01:44:16;;;;;;;12.63;6.65;;;;;;;;;;5045233;28;20483;-91
2022/03/09 01:46:42;;;;;;;13.18;6.90;;;;;;;;;;5026403;28;20036;-89
2022/03/09 01:49:09;;;;;;;12.32;7.63;;;;;;;;;;5042903;28;20045;-84
2022/03/09 01:51:38;;;;;;;15.38;7.45;;;;;;;;;;5026521;28;20161;-85
2022/03/09 01:54:04;;;;;;;12.65;7.45;;;;;;;;;;5046258;28;20485;-83
2022/03/09 01:56:30;;;;;;;11.95;7.65;;;;;;;;;;5030372;28;20028;-88
2022/03/09 01:58:56;;;;;;;13.07;7.93;;;;;;;;;;5030514;28;20072;-84
2022/03/09 02:01:22;;;;;;;14.43;7.20;;;;;;;;;;5043845;28;20694;-88
2022/03/09 02:03:49;;;;;;;12.27;6.95;;;;;;;;;;5044613;28;20112;-85
2022/03/09 02:06:14;;;;;;;14.35;7.72;;;;;;;;;;5045516;28;20044;-83
2022/03/09 02:11:26;;;;;;;13.68;7.57;;;;;;;;;;5047895;28;20083;-88
2022/03/09 02:13:51;;;;;;;16.75;7.45;;;;;;;;;;5045630;28;20021;-88
2022/03/09 02:16:16;;;;;;;13.20;7.30;;;;;;;;;;5030108;28;20028;-91
2022/03/09 02:18:42;;;;;;;13.65;7.47;;;;;;;;;;5032421;28;20059;-91
2022/03/09 02:21:10;;;;;;;12.60;7.57;;;;;;;;;;5043446;28;20028;-92
2022/03/09 02:23:36;;;;;;;12.43;7.68;;;;;;;;;;5037421;28;20029;-84
2022/03/09 02:26:01;;;;;;;13.13;6.93;;;;;;;;;;5035345;28;20075;-88
2022/03/09 02:28:26;;;;;;;11.90;7.30;;;;;;;;;;5028033;28;20025;-84
2022/03/09 02:30:56;;;;;;;15.63;7.20;;;;;;;;;;5044790;28;20021;-84
2022/03/09 02:33:21;;;;;;;12.20;7.45;;;;;;;;;;5045629;28;20025;-83
2022/03/09 02:35:47;;;;;;;16.35;7.70;;;;;;;;;;5028918;28;20087;-88
2022/03/09 02:38:12;;;;;;;16.35;8.18;;;;;;;;;;5028392;28;20025;-88
2022/03/09 02:40:37;;;;;;;15.38;7.70;;;;;;;;;;5045248;28;20029;-91
2022/03/09 02:43:03;;;;;;;15.23;7.18;;;;;;;;;;5029675;28;20024;-84
2022/03/09 02:45:28;;;;;;;12.18;7.50;;;;;;;;;;5027351;28;20170;-87
2022/03/09 02:47:54;;;;;;;13.13;7.93;;;;;;;;;;5020853;28;20049;-82
2022/03/09 02:50:19;;;;;;;12.63;7.53;;;;;;;;;;5028840;28;20052;-88
2022/03/09 02:52:44;;;;;;;14.18;7.57;;;;;;;;;;5040618;28;20503;-83
2022/03/09 02:55:10;;;;;;;13.40;8.07;;;;;;;;;;5024827;28;20108;-91
2022/03/09 02:57:36;;;;;;;15.40;7.93;;;;;;;;;;5022911;28;20078;-83
2022/03/09 03:00:04;;;;;;;13.60;7.05;;;;;;;;;;5043631;28;20032;-87
2022/03/09 03:02:29;;;;;;;12.05;7.00;;;;;;;;;;5043032;28;20048;-84
2022/03/09 03:04:55;;;;;;;13.80;7.75;;;;;;;;;;5028809;28;20028;-87
2022/03/09 03:07:20;;;;;;;14.60;7.20;;;;;;;;;;5044574;28;20032;-90
2022/03/09 03:09:45;;;;;;;12.15;7.95;;;;;;;;;;5043574;28;20026;-83
2022/03/09 03:12:11;;;;;;;14.02;6.95;;;;;;;;;;5027181;28;20021;-92
2022/03/09 03:14:36;;;;;;;14.52;7.22;;;;;;;;;;5028669;28;20032;-88
2022/03/09 03:17:01;;;;;;;12.10;7.85;;;;;;;;;;5045923;28;20025;-88
2022/03/09 03:19:27;;;;;;;18.02;7.40;;;;;;;;;;5045382;28;20051;-83
2022/03/09 03:21:52;;;;;;;12.90;7.28;;;;;;;;;;5028977;28;20021;-87
2022/03/09 03:24:18;;;;;;;12.85;6.80;;;;;;;;;;5028516;28;20418;-89
2022/03/09 03:26:43;;;;;;;14.43;6.95;;;;;;;;;;5030081;28;20025;-84
2022/03/09 03:29:09;;;;;;;14.55;7.65;;;;;;;;;;5023904;28;20024;-85
2022/03/09 03:31:34;;;;;;;16.17;7.20;;;;;;;;;;5026629;28;20087;-88
2022/03/09 03:33:59;;;;;;;15.68;7.00;;;;;;;;;;5026316;28;22281;-88
2022/03/09 03:36:25;;;;;;;15.82;7.88;;;;;;;;;;5024867;28;20036;-89
2022/03/09 03:38:50;;;;;;;14.15;7.88;;;;;;;;;;5043579;28;20503;-88
2022/03/09 03:41:16;;;;;;;12.32;7.68;;;;;;;;;;5029822;28;20060;-84
2022/03/09 03:43:41;;;;;;;13.45;7.82;;;;;;;;;;5025908;28;20028;-90
2022/03/09 03:46:06;;;;;;;12.80;7.15;;;;;;;;;;5038128;28;20025;-91
2022/03/09 03:48:32;;;;;;;14.32;7.65;;;;;;;;;;5028750;28;20504;-91
2022/03/09 03:50:57;;;;;;;13.52;7.57;;;;;;;;;;5025572;28;20075;-84
2022/03/09 03:53:23;;;;;;;13.43;7.00;;;;;;;;;;5047029;28;20478;-84
2022/03/09 03:55:48;;;;;;;13.70;7.45;;;;;;;;;;5041326;28;20025;-83
2022/03/09 03:58:13;;;;;;;12.63;7.25;;;;;;;;;;5030320;28;20025;-86
2022/03/09 04:00:39;;;;;;;12.80;7.43;;;;;;;;;;5023635;28;20421;-85
2022/03/09 04:03:04;;;;;;;11.95;7.25;;;;;;;;;;5045858;28;20037;-84
2022/03/09 04:05:30;;;;;;;12.43;7.20;;;;;;;;;;5029653;28;20468;-83
2022/03/09 04:07:56;;;;;;;11.27;6.75;;;;;;;;;;5026667;28;20052;-87
2022/03/09 04:10:22;;;;;;;14.52;6.78;;;;;;;;;;5022584;28;20036;-85
2022/03/09 04:12:47;;;;;;;11.25;6.45;;;;;;;;;;5028925;28;20039;-90
2022/03/09 04:15:13;;;;;;;15.73;7.55;;;;;;;;;;5029572;28;20135;-87
2022/03/09 04:17:40;;;;;;;12.80;6.45;;;;;;;;;;5047660;28;20074;-84
2022/03/09 04:20:06;;;;;;;13.50;6.97;;;;;;;;;;5026815;28;20128;-88
2022/03/09 04:22:31;;;;;;;12.75;6.65;;;;;;;;;;5035485;28;20163;-83
2022/03/09 04:24:56;;;;;;;13.15;7.43;;;;;;;;;;5048377;28;20029;-87
2022/03/09 04:27:22;;;;;;;15.02;7.28;;;;;;;;;;5028661;28;20024;-83
2022/03/09 04:29:47;;;;;;;15.57;7.95;;;;;;;;;;5031544;28;21248;-87
2022/03/09 04:32:12;;;;;;;14.75;7.97;;;;;;;;;;5033421;28;20370;-88
2022/03/09 04:34:38;;;;;;;13.60;7.57;;;;;;;;;;5030415;28;20052;-84
2022/03/09 04:37:04;;;;;;;15.93;7.85;;;;;;;;;;5032645;28;20029;-91
2022/03/09 04:39:29;;;;;;;13.18;7.55;;;;;;;;;;5031377;28;20033;-88
2022/03/09 04:41:54;;;;;;;15.43;7.53;;;;;;;;;;5027411;28;20416;-84
2022/03/09 04:44:20;;;;;;;13.82;7.57;;;;;;;;;;5020635;28;20017;-83
2022/03/09 04:46:45;;;;;;;12.43;7.40;;;;;;;;;;5044857;28;20025;-90
2022/03/09 04:49:10;;;;;;;15.43;7.47;;;;;;;;;;5030235;28;20140;-89
2022/03/09 04:51:36;;;;;;;12.13;7.50;;;;;;;;;;5045157;28;20024;-83
2022/03/09 04:54:02;;;;;;;14.57;7.47;;;;;;;;;;5041646;28;20033;-83
2022/03/09 04:56:27;;;;;;;12.00;6.60;;;;;;;;;;5030418;28;20506;-87
2022/03/09 04:58:52;;;;;;;12.23;6.90;;;;;;;;;;5031521;28;20477;-86
2022/03/09 05:01:18;;;;;;;13.25;7.25;;;;;;;;;;5044359;28;20032;-85
2022/03/09 05:03:43;;;;;;;12.70;7.05;;;;;;;;;;5046276;28;20032;-86
2022/03/09 05:06:08;;;;;;;12.07;7.28;;;;;;;;;;5027291;28;20033;-82
2022/03/09 05:08:34;;;;;;;15.85;7.70;;;;;;;;;;5024360;28;20655;-86
2022/03/09 05:10:59;;;;;;;13.45;7.72;;;;;;;;;;5048217;28;20432;-83
2022/03/09 05:13:25;;;;;;;13.82;7.38;;;;;;;;;;5027027;28;20074;-85
2022/03/09 05:15:50;;;;;;;13.85;7.50;;;;;;;;;;5027281;28;20028;-82
2022/03/09 05:18:15;;;;;;;13.55;7.00;;;;;;;;;;5019925;28;20080;-82
2022/03/09 05:20:41;;;;;;;13.82;7.22;;;;;;;;;;5022511;28;20034;-83
2022/03/09 05:23:06;;;;;;;14.07;7.72;;;;;;;;;;5024205;28;20343;-81
2022/03/09 05:25:32;;;;;;;13.95;7.22;;;;;;;;;;5048280;28;20025;-82
2022/03/09 05:27:59;;;;;;;12.68;7.43;;;;;;;;;;5028491;28;20028;-83
2022/03/09 05:30:25;;;;;;;14.93;7.95;;;;;;;;;;5047631;28;20032;-86
2022/03/09 05:32:50;;;;;;;13.57;8.35;;;;;;;;;;5027990;28;20029;-83
2022/03/09 05:35:16;;;;;;;13.40;6.93;;;;;;;;;;5029495;28;20027;-82
2022/03/09 05:37:43;;;;;;;13.27;7.35;;;;;;;;;;5029921;28;20040;-81
2022/03/09 05:40:09;;;;;;;14.27;8.05;;;;;;;;;;5030180;28;20580;-83
2022/03/09 05:42:35;;;;;;;14.77;7.53;;;;;;;;;;5046317;28;20058;-88
2022/03/09 05:45:01;;;;;;;14.82;7.18;;;;;;;;;;5024240;28;20028;-88
2022/03/09 05:47:26;;;;;;;15.70;7.60;;;;;;;;;;5042933;28;20048;-83
2022/03/09 05:49:52;;;;;;;14.45;7.50;;;;;;;;;;5012934;28;20025;-84
2022/03/09 05:52:18;;;;;;;13.68;7.20;;;;;;;;;;5016655;28;20028;-83
2022/03/09 05:54:45;;;;;;;11.63;7.65;;;;;;;;;;5010723;28;20099;-85
2022/03/09 05:57:17;;;;;;;15.27;7.68;;;;;;;;;;5015668;28;20041;-88
2022/03/09 05:59:42;;;;;;;19.08;7.28;;;;;;;;;;5021901;28;20362;-82
2022/03/09 06:02:08;;;;;;;12.70;7.70;;;;;;;;;;5013219;28;20034;-83
2022/03/09 06:04:33;;;;;;;11.50;6.97;;;;;;;;;;5009968;28;20037;-90
2022/03/09 06:07:02;;;;;;;15.15;7.70;;;;;;;;;;5006507;28;20022;-90
2022/03/09 06:09:27;;;;;;;13.05;7.40;;;;;;;;;;5024115;28;20076;-87
2022/03/09 06:11:53;;;;;;;16.98;7.60;;;;;;;;;;5023823;28;20481;-86
2022/03/09 06:14:18;;;;;;;15.55;7.32;;;;;;;;;;5028201;28;20056;-87
2022/03/09 06:16:44;;;;;;;15.02;7.20;;;;;;;;;;5006445;28;20115;-87
2022/03/09 06:19:10;;;;;;;14.10;7.20;;;;;;;;;;5008973;28;20036;-85
2022/03/09 06:21:35;;;;;;;15.20;7.40;;;;;;;;;;5018236;28;20029;-82
2022/03/09 06:24:02;;;;;;;15.35;7.03;;;;;;;;;;5032508;28;20037;-88
2022/03/09 06:26:28;;;;;;;13.50;6.72;;;;;;;;;;5019044;28;20045;-84
2022/03/09 06:28:53;;;;;;;13.82;7.18;;;;;;;;;;5030247;28;20029;-87
2022/03/09 06:31:18;;;;;;;14.70;7.30;;;;;;;;;;5030386;28;20024;-89
2022/03/09 06:33:44;;;;;;;15.13;6.93;;;;;;;;;;5014056;28;20037;-84
2022/03/09 06:36:09;;;;;;;12.10;7.28;;;;;;;;;;5013812;28;20036;-84
2022/03/09 06:38:35;;;;;;;12.75;6.93;;;;;;;;;;5017080;28;20025;-87
2022/03/09 06:41:00;;;;;;;12.77;7.03;;;;;;;;;;5016901;28;20038;-83
2022/03/09 06:43:29;;;;;;;16.45;7.15;;;;;;;;;;5018511;28;20091;-84
2022/03/09 06:45:54;;;;;;;15.30;7.13;;;;;;;;;;5014031;28;20025;-87
2022/03/09 06:48:20;;;;;;;12.98;6.65;;;;;;;;;;5024952;28;20044;-90
2022/03/09 06:50:45;;;;;;;14.75;7.57;;;;;;;;;;5029614;28;20024;-84
2022/03/09 06:53:11;;;;;;;13.95;7.30;;;;;;;;;;5042444;28;20029;-89
2022/03/09 06:55:36;;;;;;;15.27;7.07;;;;;;;;;;5029465;28;20057;-91
2022/03/09 06:58:04;;;;;;;13.40;7.28;;;;;;;;;;5027383;28;20044;-88
2022/03/09 07:00:30;;;;;;;13.65;7.53;;;;;;;;;;5040227;28;20083;-84
2022/03/09 07:02:56;;;;;;;16.52;7.03;;;;;;;;;;5033404;28;20044;-90
2022/03/09 07:05:22;;;;;;;13.48;7.43;;;;;;;;;;5042955;28;20034;-82
2022/03/09 07:07:48;;;;;;;11.90;6.95;;;;;;;;;;5029923;28;20369;-89
2022/03/09 07:10:13;;;;;;;12.52;7.40;;;;;;;;;;5043501;28;20036;-82
2022/03/09 07:12:41;;;;;;;14.52;7.03;;;;;;;;;;5029006;28;20055;-84
2022/03/09 07:15:07;;;;;;;14.07;6.90;;;;;;;;;;5026089;28;20032;-88
2022/03/09 07:17:32;;;;;;;18.70;7.90;;;;;;;;;;5039372;28;20481;-88
2022/03/09 07:19:57;;;;;;;14.25;7.55;;;;;;;;;;5047886;28;20194;-88
2022/03/09 07:22:23;;;;;;;14.50;7.65;;;;;;;;;;5026173;28;20033;-88
2022/03/09 07:24:48;;;;;;;13.20;7.50;;;;;;;;;;5042225;28;20021;-83
2022/03/09 07:27:14;;;;;;;15.27;7.88;;;;;;;;;;5039022;28;20035;-87
2022/03/09 07:29:39;;;;;;;15.13;7.03;;;;;;;;;;5050912;28;20063;-84
2022/03/09 07:32:05;;;;;;;13.50;7.60;;;;;;;;;;5031432;28;20028;-83
2022/03/09 07:34:31;;;;;;;15.25;7.03;;;;;;;;;;5042408;28;20034;-81
2022/03/09 07:36:58;;;;;;;14.85;6.90;;;;;;;;;;5030860;28;20384;-85
2022/03/09 07:39:28;;;;;;;13.48;7.32;;;;;;;;;;5030451;28;20039;-82
2022/03/09 07:41:55;;;;;;;16.60;7.82;;;;;;;;;;5040226;28;20022;-87
2022/03/09 07:44:21;;;;;;;19.48;7.75;;;;;;;;;;5026511;28;20133;-82
2022/03/09 07:46:47;;;;;;;15.98;7.25;;;;;;;;;;5034511;28;20263;-85
2022/03/09 07:49:13;;;;;;;13.63;7.60;;;;;;;;;;5028144;28;20528;-86
2022/03/09 07:51:39;;;;;;;16.20;7.65;;;;;;;;;;5045571;28;20053;-81
2022/03/09 07:54:04;;;;;;;13.38;7.65;;;;;;;;;;5045034;28;20029;-86
2022/03/09 07:56:30;;;;;;;14.88;7.38;;;;;;;;;;5025952;28;20609;-86
2022/03/09 07:58:55;;;;;;;11.38;6.78;;;;;;;;;;5044726;28;20020;-81
2022/03/09 08:01:20;;;;;;;15.45;7.57;;;;;;;;;;5043145;28;20028;-80
2022/03/09 08:03:46;;;;;;;14.23;7.50;;;;;;;;;;5041780;28;20035;-81
2022/03/09 08:06:12;;;;;;;14.85;7.50;;;;;;;;;;5025409;28;20032;-82
2022/03/09 08:08:38;;;;;;;13.30;7.32;;;;;;;;;;5045787;28;20029;-82
2022/03/09 08:11:03;;;;;;;11.65;6.75;;;;;;;;;;5028179;28;20116;-85
2022/03/09 08:13:29;;;;;;;16.50;7.75;;;;;;;;;;5024652;28;20068;-81
2022/03/09 08:15:54;;;;;;;11.43;6.93;;;;;;;;;;5044415;28;20029;-84
2022/03/09 08:18:20;;;;;;;18.20;7.18;;;;;;;;;;5028395;28;20177;-85
2022/03/09 08:20:45;;;;;;;16.23;7.35;;;;;;;;;;5018301;28;20465;-80
2022/03/09 08:23:10;;;;;;;16.30;7.10;;;;;;;;;;5025639;28;20387;-85
2022/03/09 08:25:36;;;;;;;13.77;7.53;;;;;;;;;;5029654;28;20036;-86
2022/03/09 08:28:01;;;;;;;15.75;7.97;;;;;;;;;;5041461;28;20108;-86
2022/03/09 08:30:27;;;;;;;15.80;7.72;;;;;;;;;;5029385;28;20202;-87
2022/03/09 08:32:52;;;;;;;13.55;7.10;;;;;;;;;;5027860;28;20052;-84
2022/03/09 08:35:18;;;;;;;12.70;7.53;;;;;;;;;;5044204;28;20112;-87
2022/03/09 08:37:43;;;;;;;13.00;7.20;;;;;;;;;;5044261;28;20158;-87
2022/03/09 08:40:09;;;;;;;12.80;7.30;;;;;;;;;;5047028;28;20115;-81
2022/03/09 08:42:35;;;;;;;12.88;7.28;;;;;;;;;;5027386;28;20025;-82
2022/03/09 08:45:00;;;;;;;15.85;8.00;;;;;;;;;;5044973;28;20017;-88
2022/03/09 08:47:26;;;;;;;14.57;7.93;;;;;;;;;;5022792;28;20401;-88
2022/03/09 08:49:52;;;;;;;14.80;7.53;;;;;;;;;;5039616;28;20029;-83
2022/03/09 08:52:17;;;;;;;17.23;7.95;;;;;;;;;;5044538;28;20052;-88
2022/03/09 08:54:42;;;;;;;13.05;7.53;;;;;;;;;;5044987;28;20024;-88
2022/03/09 08:57:08;;;;;;;12.25;7.40;;;;;;;;;;5044294;28;20075;-83
2022/03/09 08:59:33;;;;;;;14.02;8.32;;;;;;;;;;5048439;28;20029;-82
2022/03/09 09:01:59;;;;;;;13.82;7.90;;;;;;;;;;5044412;28;20598;-87
2022/03/09 09:04:24;;;;;;;12.57;7.13;;;;;;;;;;5030397;28;20456;-83
2022/03/09 09:06:50;;;;;;;17.30;8.52;;;;;;;;;;5049060;28;20029;-87
2022/03/09 09:09:17;;;;;;;14.77;7.63;;;;;;;;;;5026446;28;20040;-83
2022/03/09 09:11:43;;;;;;;15.40;8.18;;;;;;;;;;5036473;28;20031;-87
2022/03/09 09:14:08;;;;;;;16.60;7.68;;;;;;;;;;5029669;28;20025;-87
2022/03/09 09:16:33;;;;;;;15.18;8.63;;;;;;;;;;5037922;28;20087;-88
2022/03/09 09:18:59;;;;;;;14.13;8.02;;;;;;;;;;5043141;28;20029;-87
2022/03/09 09:21:24;;;;;;;16.20;8.52;;;;;;;;;;5028112;28;20032;-84
2022/03/09 09:23:50;;;;;;;13.90;8.35;;;;;;;;;;5046120;28;20025;-87
2022/03/09 09:26:16;;;;;;;13.30;8.25;;;;;;;;;;5030266;28;20021;-83
2022/03/09 09:28:42;;;;;;;14.07;8.20;;;;;;;;;;5032686;28;20147;-88
2022/03/09 09:31:07;;;;;;;15.40;9.13;;;;;;;;;;5048255;28;20103;-85
2022/03/09 09:33:33;;;;;;;18.00;8.82;;;;;;;;;;5033769;28;20484;-86
2022/03/09 09:35:58;;;;;;;16.88;9.77;;;;;;;;;;5032741;28;20480;-87
2022/03/09 09:38:23;;;;;;;18.90;9.30;;;;;;;;;;5046950;28;20024;-83
2022/03/09 09:40:53;;;;;;;21.13;10.02;;;;;;;;;;5044492;28;20033;-82
2022/03/09 09:43:18;;;;;;;18.70;9.95;;;;;;;;;;5031204;28;20063;-84
2022/03/09 09:45:44;;;;;;;16.80;9.68;;;;;;;;;;5045641;28;20029;-86
2022/03/09 09:48:10;;;;;;;19.90;9.27;;;;;;;;;;5030415;28;20067;-87
2022/03/09 09:50:37;;;;;;;15.48;9.55;;;;;;;;;;5028700;28;20021;-88
2022/03/09 09:53:05;;;;;;;14.38;9.02;;;;;;;;;;5037885;28;20059;-86
2022/03/09 09:55:31;;;;;;;16.38;9.02;;;;;;;;;;5025682;28;20035;-83
2022/03/09 09:57:57;;;;;;;18.92;9.45;;;;;;;;;;5028888;28;20083;-83
2022/03/09 10:00:23;;;;;;;18.05;9.77;;;;;;;;;;5030982;28;20028;-86
2022/03/09 10:02:48;;;;;;;16.58;8.85;;;;;;;;;;5032282;28;20021;-83
2022/03/09 10:05:16;;;;;;;17.58;9.85;;;;;;;;;;5045397;28;20104;-83
2022/03/09 10:08:10;;;;;;;15.63;9.70;;;;;;;;;;5047137;28;20115;-82
2022/03/09 10:10:37;;;;;;;;;;;;;;;;;;5038618;28;20047;-86
2022/03/09 10:13:12;;;;;;;17.77;9.38;;;;;;;;;;5046826;28;20216;-86
2022/03/09 10:15:39;;;;;;;18.00;9.65;;;;;;;;;;5041972;28;20041;-86
2022/03/09 10:18:31;;;;;;;15.85;9.18;;;;;;;;;;5023565;28;20048;-87
2022/03/09 10:21:08;;;;;;;16.00;9.30;;;;;;;;;;5037850;28;20183;-86
2022/03/09 10:23:33;;;;;;;15.73;9.57;;;;;;;;;;5028637;28;20047;-85
2022/03/09 10:26:01;;;;;;;19.40;9.70;;;;;;;;;;5043373;28;20401;-86
2022/03/09 10:28:27;;;;;;;16.08;9.65;;;;;;;;;;5040917;28;20535;-86
2022/03/09 10:30:52;;;;;;;17.00;9.75;;;;;;;;;;5022946;28;20040;-87
2022/03/09 10:33:19;;;;;;;17.52;10.13;;;;;;;;;;5042311;28;20032;-83
2022/03/09 10:35:49;;;;;;;18.58;10.18;;;;;;;;;;5045282;28;20017;-88
2022/03/09 10:38:14;;;;;;;16.42;9.85;;;;;;;;;;5049618;28;20123;-83
2022/03/09 10:40:48;;;;;;;15.73;9.93;;;;;;;;;;5042202;28;20017;-87
2022/03/09 10:43:22;;;;;;;16.83;10.27;;;;;;;;;;5039616;28;20070;-88
2022/03/09 10:46:01;;;;;;;17.05;10.50;;;;;;;;;;5027969;28;20024;-82
2022/03/09 10:48:49;;;;;;;16.42;9.93;;;;;;;;;;5037901;28;20370;-85
2022/03/09 10:51:28;;;;;;;20.85;10.20;;;;;;;;;;5036655;28;20033;-87
2022/03/09 10:53:54;;;;;;;16.55;9.95;;;;;;;;;;5028253;28;20029;-87
2022/03/09 10:56:20;;;;;;;17.98;10.57;;;;;;;;;;5027617;28;20477;-88
2022/03/09 10:58:46;;;;;;;16.35;9.60;;;;;;;;;;5026078;28;20025;-88
2022/03/09 11:01:16;;;;;;;19.38;10.95;;;;;;;;;;5027844;28;20124;-86
2022/03/09 11:03:43;;;;;;;22.15;11.00;;;;;;;;;;5032297;28;20118;-87
2022/03/09 11:06:10;;;;;;;18.95;10.55;;;;;;;;;;5038359;28;20017;-82
2022/03/09 11:08:36;;;;;;;17.67;10.75;;;;;;;;;;5019895;28;20053;-83
2022/03/09 11:11:03;;;;;;;19.15;10.77;;;;;;;;;;5044887;28;20020;-82
2022/03/09 11:13:32;;;;;;;19.08;10.82;;;;;;;;;;5023276;28;20411;-86
2022/03/09 11:15:57;;;;;;;21.33;11.45;;;;;;;;;;5035127;28;20044;-82
2022/03/09 11:18:28;;;;;;;20.08;11.13;;;;;;;;;;5016804;28;20393;-86
2022/03/09 11:20:59;;;;;;;20.13;11.13;;;;;;;;;;5039038;28;20048;-81
2022/03/09 11:23:27;;;;;;;18.95;10.85;;;;;;;;;;5039945;28;20119;-86
2022/03/09 11:25:54;;;;;;;24.63;11.50;;;;;;;;;;5043614;28;20048;-83
2022/03/09 11:28:25;;;;;;;20.85;11.38;;;;;;;;;;5027411;28;20037;-80
2022/03/09 11:31:04;;;;;;;19.98;11.77;;;;;;;;;;5028377;28;20079;-84
2022/03/09 11:33:37;;;;;;;21.80;12.68;;;;;;;;;;5021908;28;20029;-83
2022/03/09 11:36:27;;;;;;;17.85;11.50;;;;;;;;;;5023271;28;20496;-81
2022/03/09 11:39:05;;;;;;;20.50;11.95;;;;;;;;;;5043343;28;20025;-80
2022/03/09 11:41:36;;;;;;;23.50;11.98;;;;;;;;;;5024659;28;20463;-81
2022/03/09 11:44:19;;;;;;;23.00;12.07;;;;;;;;;;5027043;28;20021;-83
2022/03/09 11:46:57;;;;;;;20.38;11.43;;;;;;;;;;5041679;28;20045;-83
2022/03/09 11:49:23;;;;;;;22.80;12.07;;;;;;;;;;5039425;28;20067;-81
2022/03/09 11:52:25;;;;;;;21.77;12.25;;;;;;;;;;5037364;28;20051;-80
2022/03/09 11:54:56;;;;;;;23.60;12.80;;;;;;;;;;4949096;28;20041;-82
2022/03/09 11:57:50;;;;;;;24.02;12.98;;;;;;;;;;5028004;28;20029;-86
2022/03/09 12:00:20;;;;;;;20.50;12.55;;;;;;;;;;5046060;28;20112;-83
2022/03/09 12:02:48;;;;;;;22.35;12.82;;;;;;;;;;5031624;28;20029;-84
2022/03/09 12:05:29;;;;;;;20.65;12.38;;;;;;;;;;5023973;28;20048;-87
2022/03/09 12:08:11;;;;;;;26.25;13.32;;;;;;;;;;5040794;28;20033;-86
2022/03/09 12:10:44;;;;;;;24.93;12.23;;;;;;;;;;5030780;28;20570;-83
2022/03/09 12:13:17;;;;;;;24.27;13.32;;;;;;;;;;5019125;28;20501;-81
2022/03/09 12:16:01;;;;;;;25.75;13.00;;;;;;;;;;5040879;28;20595;-82
2022/03/09 12:18:40;;;;;;;25.85;12.82;;;;;;;;;;5021112;28;20492;-82
2022/03/09 12:21:07;;;;;;;22.08;13.13;;;;;;;;;;5032137;28;20029;-82
2022/03/09 12:23:34;;;;;;;20.45;12.27;;;;;;;;;;5025006;28;20322;-84
2022/03/09 12:26:01;;;;;;;23.75;13.90;;;;;;;;;;5035689;28;20033;-81
2022/03/09 12:28:33;;;;;;;23.95;13.88;;;;;;;;;;5038391;28;20037;-83
2022/03/09 12:31:04;;;;;;;26.52;13.63;;;;;;;;;;5036271;28;20674;-84
2022/03/09 12:33:42;;;;;;;23.73;13.95;;;;;;;;;;5049535;28;20044;-84
2022/03/09 12:36:17;;;;;;;26.95;12.88;;;;;;;;;;4975539;28;22593;-84
2022/03/09 12:39:31;;;;;;;24.20;12.60;;;;;;;;;;4989087;27;20410;-81
2022/03/09 12:41:58;;;;;;;21.77;12.73;;;;;;;;;;4990280;28;105533;-84
2022/03/09 12:44:27;;;;;;;24.92;13.30;;;;;;;;;;5000387;28;20618;-83
2022/03/09 12:46:53;;;;;;;23.33;13.13;;;;;;;;;;5002464;28;20548;-83
2022/03/09 12:49:28;;;;;;;24.02;13.23;;;;;;;;;;5005267;28;20100;-82
2022/03/09 12:51:55;;;;;;;26.73;14.63;;;;;;;;;;5032900;28;20034;-82
2022/03/09 12:54:47;;;;;;;27.20;14.18;;;;;;;;;;5000779;28;20026;-81
2022/03/09 12:57:18;;;;;;;23.60;13.23;;;;;;;;;;4998245;28;20057;-83
2022/03/09 13:00:06;;;;;;;21.83;12.48;;;;;;;;;;5004134;28;20033;-81
2022/03/09 13:02:49;;;;;;;24.02;14.20;;;;;;;;;;5000570;28;20041;-84
2022/03/09 13:05:20;;;;;;;25.08;13.73;;;;;;;;;;4996946;28;20033;-80
2022/03/09 13:07:57;;;;;;;26.48;13.63;;;;;;;;;;4999227;28;20035;-81
2022/03/09 13:10:25;;;;;;;24.45;13.43;;;;;;;;;;5014045;28;20434;-81
2022/03/09 13:12:56;;;;;;;33.47;14.25;;;;;;;;;;5004342;28;20088;-80
2022/03/09 13:15:34;;;;;;;27.13;14.07;;;;;;;;;;5005376;28;20398;-83
2022/03/09 13:17:59;;;;;;;24.33;13.70;;;;;;;;;;4999262;28;20029;-83
2022/03/09 13:20:25;;;;;;;24.33;13.38;;;;;;;;;;5002678;28;20121;-80
2022/03/09 13:22:50;;;;;;;25.58;14.00;;;;;;;;;;5002724;28;20022;-80
2022/03/09 13:25:15;;;;;;;23.38;13.95;;;;;;;;;;5003689;28;20053;-81
2022/03/09 13:27:42;;;;;;;27.50;15.40;;;;;;;;;;5000685;28;20029;-84
2022/03/09 13:30:11;;;;;;;23.90;13.55;;;;;;;;;;5001004;28;20026;-81
2022/03/09 13:32:37;;;;;;;25.60;14.00;;;;;;;;;;4998991;28;20036;-82
2022/03/09 13:35:03;;;;;;;25.60;15.38;;;;;;;;;;5036606;28;20026;-84
2022/03/09 13:37:34;;;;;;;23.92;13.23;;;;;;;;;;5000621;28;20053;-80
2022/03/09 13:40:00;;;;;;;24.73;14.35;;;;;;;;;;5002914;28;20116;-85
2022/03/09 13:42:34;;;;;;;24.55;14.02;;;;;;;;;;5005623;28;20033;-81
2022/03/09 13:45:04;;;;;;;25.98;14.35;;;;;;;;;;4999880;28;20080;-84
2022/03/09 13:47:29;;;;;;;26.15;14.55;;;;;;;;;;4993680;28;20169;-82
2022/03/09 13:49:55;;;;;;;23.98;13.40;;;;;;;;;;4987379;28;20058;-83
2022/03/09 13:52:27;;;;;;;28.38;14.73;;;;;;;;;;4986211;28;20035;-82
2022/03/09 13:54:53;;;;;;;27.23;14.63;;;;;;;;;;5010531;28;20065;-81
2022/03/09 13:57:33;;;;;;;24.63;14.57;;;;;;;;;;4983995;28;20065;-80
2022/03/09 14:00:01;;;;;;;25.73;14.05;;;;;;;;;;4983838;28;20502;-84
2022/03/09 14:02:27;;;;;;;27.58;14.18;;;;;;;;;;4987531;28;20088;-82
2022/03/09 14:04:53;;;;;;;25.52;14.05;;;;;;;;;;4988035;28;20080;-83
2022/03/09 14:07:21;;;;;;;27.95;13.60;;;;;;;;;;4985030;28;20486;-81
2022/03/09 14:10:15;;;;;;;27.67;14.02;;;;;;;;;;4986217;28;20054;-80
2022/03/09 14:12:45;;;;;;;28.98;14.65;;;;;;;;;;5019612;28;20387;-85
2022/03/09 14:15:14;;;;;;;24.10;13.82;;;;;;;;;;4989060;28;20022;-81
2022/03/09 14:17:40;;;;;;;27.55;14.77;;;;;;;;;;5019889;28;20479;-83
2022/03/09 14:20:07;;;;;;;25.15;14.43;;;;;;;;;;4994880;28;20032;-80
2022/03/09 14:22:39;;;;;;;27.58;14.32;;;;;;;;;;5023867;28;20034;-81
2022/03/09 14:25:05;;;;;;;29.50;14.50;;;;;;;;;;4984793;28;20034;-83
2022/03/09 14:27:31;;;;;;;27.17;14.27;;;;;;;;;;5022521;28;20601;-80
2022/03/09 14:29:56;;;;;;;28.10;14.07;;;;;;;;;;4986749;28;20077;-83
2022/03/09 14:32:21;;;;;;;25.15;13.75;;;;;;;;;;4991987;28;20116;-82